South Lake Tahoe, California
Current Conditions -  °F | °C
As of 11:53 AM on Thursday 18 Dec 2014 (Local Time) from KTVL Reporting Station
Scattered Clouds Scattered Clouds  
Wind Chill: 38°   Ceiling: Unl
Heat Index: 42°   Visibility: 10mi
Dew Point: 25°   Wind: 7mph
Humidity: 51%   Direction: 190°S
Pressure: 30.13"   Gusts: NA
Location:  38.91°N, 120°W
Report Text: KTVL 181953Z AUTO 19006KT 10SM SCT034 06/M04 A3013 RMK AO2 SLP193 T00561039
Loading
Personal Weather Stations






























Interactive Weather Map New forecast layout! Learn more

10-Day Weather Forecast

Advertisements
Track Severe Weather on mobile